Aeroporto :
LOGIN :

Iscrizione | Disclaimer

   EN    FR    IT 

 










Sommario :    VFR   VFR Marginale   IFR   IFR Intensivo   IFR Molto Intensivo
Visibilità : 
Base nubi : 
>= 8 km
>= 3000ft
5 / 8 km
1000 / 3000 ft
1500m / 5 km
500 / 1000 ft
800 / 1500m
200 / 500 ft
< 800m
< 200 ft
Simboli :   Temporali  Nebbia  Neve Forte  Precipitazioni Forti  Vento > 20 kt
SIGMETs :   Varie  Temporali  Ghiacco  Turbolenza  Onda orograficha  Ceneri Vulcaniche






- Altitudine del aeroporto : 505 ft
- Codice IATA : SXB


LFST - Strasbourg

ULTIMO METAR :
  • 290600Z AUTO VRB01KT 9999 -RA BKN043/// BKN070/// OVC092/// ///TCU 14/12 Q1016 BECMG NSC

METARs OBSOLETI :
  • 290530Z AUTO 22004KT 9999 -RA FEW045/// SCT074/// OVC090/// ///CB 14/12 Q1016 BECMG NSC
  • 290500Z AUTO 21004KT 160V250 9999 FEW050/// BKN094/// OVC120/// ///TCU 14/11 Q1016 BECMG NSC
  • 290430Z AUTO 20003KT 9999 FEW009 BKN110 BKN170 14/11 Q1016 NOSIG
  • 290400Z AUTO 18003KT 130V210 CAVOK 14/11 Q1016 NOSIG
  • 290330Z AUTO 15003KT 120V190 CAVOK 14/11 Q1016 NOSIG
  • 290300Z AUTO 15003KT 120V180 CAVOK 14/11 Q1016 NOSIG
  • 290230Z AUTO 13004KT 110V170 9999 FEW060 BKN074 OVC088 14/11 Q1016 NOSIG
  • 290200Z AUTO 14002KT CAVOK 14/13 Q1017 NOSIG
  • 290130Z AUTO VRB02KT CAVOK 15/11 Q1017 NOSIG

TAF TAF LFST
Valido dal 29 a 06 ore il 30 a 06 ore UTC


290500Z 2906/3006 20004KT CAVOK
PROB40
TEMPO 2906/2908 -RA
TEMPO 2910/3006 RA FEW020TCU
PROB30
TEMPO 2914/2919 4000 RA
PROB40
TEMPO 3000/3006 BKN010



MetMap, La meteo Aeronautica in un colpo d'occhio ! - Copyright ORBIFLY Dicembre 2007 - Disclaimer

ORBIFLY MET'MAP TEAM :

Programmazione e sviluppo : Alexandra Zaïnal
Concezione : Baudouin d'Aumeries
Supporto tecnico e logistico : Manuel Goepfert
Aiuto : Marc-Olivier Méhu
Aiuto per la traduzione : Arnaldo La Scala




FONTI E CREDITI :

   NOAA